Orbital elements of FENGYUN 1C DEB
| Launched | 9 May 1999 |
| Flight ended | – |
| Launch site | Taiyuan Space Center, PRC |
| Owner | People's Republic of China |
| NORAD ID | 30602 |
| Date fetched |
Epoch osculation |
Inc. [°] |
Ecc. | RA asc node [hr] |
Arg Peri. [°] |
Mean anom [°] |
Mean motion [rev/day] |
Abs. mag |
| Date fetched |
Epoch osculation |
Inc. [°] |
Ecc. | RA asc node [hr] |
Arg Peri. [°] |
Mean anom [°] |
Mean motion [rev/day] |
Abs. mag |
| 2026 May 05 17:57 | 2026 May 03 19:45:58 | 98.9942 | 0.00232 | 4.5759 | 157.1104 | 227.0531 | 15.74366 | – |
| 2026 May 04 17:57 | 2026 Apr 30 12:10:15 | 99.0021 | 0.00223 | 4.2935 | 144.9876 | 227.0531 | 15.74366 | – |
| 2026 May 03 17:57 | 2026 Apr 30 12:10:15 | 99.0021 | 0.00223 | 4.2935 | 144.9876 | 227.0531 | 15.74366 | – |
| 2026 May 02 17:57 | 2026 Apr 30 12:10:15 | 99.0021 | 0.00223 | 4.2935 | 144.9876 | 227.0531 | 15.74366 | – |
| 2026 May 01 17:56 | 2026 Apr 30 12:10:15 | 99.0021 | 0.00223 | 4.2935 | 144.9876 | 227.0531 | 15.74366 | – |
| 2026 Apr 30 17:56 | 2026 Apr 30 12:10:15 | 99.0021 | 0.00223 | 4.2935 | 144.9876 | 227.0531 | 15.74366 | – |
| 2026 Apr 29 17:57 | 2026 Apr 24 08:00:30 | 99.0073 | 0.00201 | 3.7788 | 121.4850 | 227.0531 | 15.74366 | – |
| 2026 Apr 28 17:56 | 2026 Apr 24 08:00:30 | 99.0073 | 0.00201 | 3.7788 | 121.4850 | 227.0531 | 15.74366 | – |
| 2026 Apr 27 17:58 | 2026 Apr 24 08:00:30 | 99.0073 | 0.00201 | 3.7788 | 121.4850 | 227.0531 | 15.74366 | – |
| 2026 Apr 26 17:58 | 2026 Apr 24 08:00:30 | 99.0073 | 0.00201 | 3.7788 | 121.4850 | 227.0531 | 15.74366 | – |
| 2026 Apr 25 17:58 | 2026 Apr 24 08:00:30 | 99.0073 | 0.00201 | 3.7788 | 121.4850 | 227.0531 | 15.74366 | – |
| 2026 Apr 24 17:59 | 2026 Apr 24 08:00:30 | 99.0073 | 0.00201 | 3.7788 | 121.4850 | 227.0531 | 15.74366 | – |
| 2026 Apr 23 17:57 | 2026 Apr 18 07:11:02 | 99.0109 | 0.00202 | 3.2823 | 119.3957 | 227.0531 | 15.74366 | – |
| 2026 Apr 22 17:57 | 2026 Apr 18 07:11:02 | 99.0109 | 0.00202 | 3.2823 | 119.3957 | 227.0531 | 15.74366 | – |
| 2026 Apr 21 17:57 | 2026 Apr 18 07:11:02 | 99.0109 | 0.00202 | 3.2823 | 119.3957 | 227.0531 | 15.74366 | – |
| 2026 Apr 20 17:57 | 2026 Apr 18 07:11:02 | 99.0109 | 0.00202 | 3.2823 | 119.3957 | 227.0531 | 15.74366 | – |
| 2026 Apr 19 17:58 | 2026 Apr 18 07:11:02 | 99.0109 | 0.00202 | 3.2823 | 119.3957 | 227.0531 | 15.74366 | – |
| 2026 Apr 18 17:56 | 2026 Apr 13 02:07:08 | 99.0091 | 0.00196 | 2.8567 | 123.5635 | 227.0531 | 15.74366 | – |
| 2026 Apr 16 17:57 | 2026 Apr 13 02:07:08 | 99.0091 | 0.00196 | 2.8567 | 123.5635 | 227.0531 | 15.74366 | – |
| 2026 Apr 14 17:57 | 2026 Apr 13 02:07:08 | 99.0091 | 0.00196 | 2.8567 | 123.5635 | 227.0531 | 15.74366 | – |
| 2026 Apr 13 17:57 | 2026 Apr 13 02:07:08 | 99.0091 | 0.00196 | 2.8567 | 123.5635 | 227.0531 | 15.74366 | – |
| 2026 Apr 12 17:57 | 2026 Apr 08 12:17:36 | 99.0121 | 0.00188 | 2.4846 | 126.6333 | 227.0531 | 15.74366 | – |
| 2026 Apr 11 17:57 | 2026 Apr 08 12:17:36 | 99.0121 | 0.00188 | 2.4846 | 126.6333 | 227.0531 | 15.74366 | – |
| 2026 Apr 10 17:58 | 2026 Apr 08 12:17:36 | 99.0121 | 0.00188 | 2.4846 | 126.6333 | 227.0531 | 15.74366 | – |
| 2026 Apr 09 18:01 | 2026 Apr 08 12:17:36 | 99.0121 | 0.00188 | 2.4846 | 126.6333 | 227.0531 | 15.74366 | – |
| 2026 Apr 08 17:57 | 2026 Apr 08 12:17:36 | 99.0121 | 0.00188 | 2.4846 | 126.6333 | 227.0531 | 15.74366 | – |